Time;durP1;ratioP1;P1;durP2;ratioP2;P2;SDS_P1;SDS_P2;PMS_P1;PMS_P2;Temp;Humidity;BMP_temperature;BMP_pressure;BME280_temperature;BME280_humidity;BME280_pressure;Samples;Min_cycle;Max_cycle;Signal;HPM_P1;HPM_P2
2023/04/02 00:00:30;;;;;;;4.65;1.23;;;3.00;99.90;;;;;;4998098;28;20310;-64
2023/04/02 00:03:02;;;;;;;5.25;1.15;;;3.00;99.90;;;;;;5015870;28;20084;-64
2023/04/02 00:05:30;;;;;;;6.28;1.35;;;2.90;99.90;;;;;;4984724;28;20508;-63
2023/04/02 00:08:03;;;;;;;2.45;0.47;;;3.00;99.90;;;;;;4997676;28;20565;-62
2023/04/02 00:10:29;;;;;;;1.30;0.50;;;2.90;99.90;;;;;;5013254;28;20582;-63
2023/04/02 00:13:23;;;;;;;3.22;0.98;;;2.90;99.90;;;;;;4998029;28;20639;-63
2023/04/02 00:15:55;;;;;;;3.97;0.85;;;2.90;99.90;;;;;;4980587;28;20130;-64
2023/04/02 00:18:21;;;;;;;2.78;0.65;;;2.80;99.90;;;;;;4979920;28;20057;-64
2023/04/02 00:20:59;;;;;;;4.25;1.00;;;2.90;99.90;;;;;;4997586;28;20131;-64
2023/04/02 00:23:25;;;;;;;3.70;1.02;;;2.80;99.90;;;;;;4979369;28;20053;-64
2023/04/02 00:25:51;;;;;;;8.20;0.95;;;2.80;99.90;;;;;;4998371;28;20037;-65
2023/04/02 00:28:22;;;;;;;2.05;0.43;;;2.70;99.90;;;;;;5006924;28;20100;-65
2023/04/02 00:30:53;;;;;;;3.90;0.73;;;2.70;99.90;;;;;;4996786;28;20072;-65
2023/04/02 00:33:22;;;;;;;2.13;0.40;;;2.70;99.90;;;;;;4990745;28;20046;-64
2023/04/02 00:35:50;;;;;;;2.90;0.60;;;2.80;99.90;;;;;;4999570;28;20048;-64
2023/04/02 00:38:31;;;;;;;2.08;0.60;;;2.70;99.90;;;;;;4999338;28;20262;-64
2023/04/02 00:41:06;;;;;;;5.13;1.00;;;2.60;99.90;;;;;;4998391;28;20387;-64
2023/04/02 00:43:37;;;;;;;7.90;1.23;;;2.70;99.90;;;;;;4995737;28;20591;-64
2023/04/02 00:46:17;;;;;;;2.97;0.70;;;2.70;99.90;;;;;;4980919;28;20034;-64
2023/04/02 00:49:07;;;;;;;1.58;0.47;;;2.50;99.90;;;;;;4998346;28;20116;-64
2023/04/02 00:51:52;;;;;;;1.88;0.47;;;2.50;99.90;;;;;;4999597;28;20490;-64
2023/04/02 00:54:21;;;;;;;2.97;0.82;;;2.40;99.90;;;;;;4995807;28;20049;-65
2023/04/02 00:56:50;;;;;;;3.03;0.82;;;2.50;99.90;;;;;;4997596;28;20133;-63
2023/04/02 00:59:32;;;;;;;5.15;0.80;;;2.50;99.90;;;;;;5014174;28;20147;-64
2023/04/02 01:02:16;;;;;;;4.63;0.80;;;2.30;99.90;;;;;;4991117;28;20245;-64
2023/04/02 01:04:50;;;;;;;2.05;0.68;;;2.30;99.90;;;;;;4998456;28;20495;-64
2023/04/02 01:07:17;;;;;;;3.13;0.88;;;2.40;99.90;;;;;;5013076;28;20326;-64
2023/04/02 01:10:15;;;;;;;3.88;0.73;;;2.40;99.90;;;;;;4999616;28;20115;-65
2023/04/02 01:13:13;;;;;;;4.25;0.80;;;2.30;99.90;;;;;;4965862;28;20037;-65
2023/04/02 01:15:51;;;;;;;5.47;1.05;;;2.40;99.90;;;;;;4994109;28;20099;-64
2023/04/02 01:18:36;;;;;;;3.83;0.65;;;2.40;99.90;;;;;;4994940;28;20068;-64
2023/04/02 01:21:10;;;;;;;2.67;0.70;;;2.30;99.90;;;;;;4995180;28;20308;-65
2023/04/02 01:23:51;;;;;;;3.92;0.60;;;2.40;99.90;;;;;;4994809;28;20072;-65
2023/04/02 01:26:43;;;;;;;2.70;0.40;;;2.30;99.90;;;;;;4978018;28;20492;-64
2023/04/02 01:29:22;;;;;;;4.43;0.70;;;2.30;99.90;;;;;;4994703;28;20045;-64
2023/04/02 01:31:50;;;;;;;4.10;0.68;;;2.30;99.90;;;;;;4995708;28;20041;-65
2023/04/02 01:34:20;;;;;;;3.13;0.60;;;2.20;99.90;;;;;;4997610;28;20124;-64
2023/04/02 01:37:07;;;;;;;4.32;0.60;;;2.20;99.90;;;;;;4996387;28;20048;-65
2023/04/02 01:39:52;;;;;;;2.03;0.50;;;2.20;99.90;;;;;;4997192;28;20426;-64
2023/04/02 01:42:28;;;;;;;3.28;0.43;;;2.10;99.90;;;;;;4996172;28;20498;-64
2023/04/02 01:45:08;;;;;;;3.33;0.75;;;2.10;99.90;;;;;;5012248;28;20128;-66
2023/04/02 01:47:34;;;;;;;3.53;0.52;;;2.20;99.90;;;;;;4995273;28;20077;-64
2023/04/02 01:50:25;;;;;;;3.35;0.40;;;2.10;99.90;;;;;;4994492;28;20323;-65
2023/04/02 01:52:55;;;;;;;1.92;0.40;;;2.00;99.90;;;;;;5011945;28;20046;-66
2023/04/02 01:55:49;;;;;;;4.30;0.50;;;2.00;99.90;;;;;;4998846;28;20132;-65
2023/04/02 01:58:25;;;;;;;2.50;0.63;;;2.10;99.90;;;;;;4977763;28;20057;-65
2023/04/02 02:01:13;;;;;;;5.78;0.88;;;2.00;99.90;;;;;;5011463;28;20045;-63
2023/04/02 02:03:41;;;;;;;3.25;0.38;;;2.00;99.90;;;;;;4998782;28;20450;-64
2023/04/02 02:06:12;;;;;;;3.20;0.52;;;1.90;99.90;;;;;;4994611;28;20192;-65
2023/04/02 02:09:03;;;;;;;2.80;0.63;;;1.90;99.90;;;;;;5010538;28;20488;-65
2023/04/02 02:11:31;;;;;;;3.45;0.47;;;1.90;99.90;;;;;;4995635;28;20045;-64
2023/04/02 02:13:59;;;;;;;3.72;0.70;;;1.90;99.90;;;;;;4998697;28;20046;-65
2023/04/02 02:16:30;;;;;;;3.50;0.40;;;1.90;99.90;;;;;;4999319;28;20060;-64
2023/04/02 02:19:01;;;;;;;2.65;0.60;;;1.90;99.90;;;;;;5017673;28;20056;-64
2023/04/02 02:21:46;;;;;;;4.65;0.70;;;1.90;99.90;;;;;;4980095;28;20041;-64
2023/04/02 02:24:25;;;;;;;6.38;0.60;;;1.80;99.90;;;;;;4999292;28;20177;-65
2023/04/02 02:27:03;;;;;;;3.45;0.40;;;1.80;99.90;;;;;;4999357;28;20460;-64
2023/04/02 02:29:35;;;;;;;3.60;0.80;;;1.70;99.90;;;;;;4997550;28;20045;-65
2023/04/02 02:32:03;;;;;;;5.70;0.60;;;1.80;99.90;;;;;;4990987;28;20121;-65
2023/04/02 02:34:36;;;;;;;5.20;0.63;;;1.80;99.90;;;;;;4995800;28;20452;-65
2023/04/02 02:37:25;;;;;;;3.35;0.80;;;1.80;99.90;;;;;;4998547;28;20311;-65
2023/04/02 02:39:55;;;;;;;4.28;0.65;;;1.70;99.90;;;;;;4993319;28;20136;-65
2023/04/02 02:42:27;;;;;;;2.60;0.70;;;1.80;99.90;;;;;;5007169;28;20060;-65
2023/04/02 02:44:55;;;;;;;3.90;0.70;;;1.80;99.90;;;;;;4998208;28;20076;-64
2023/04/02 02:47:29;;;;;;;2.35;0.45;;;1.80;99.90;;;;;;4999383;28;20041;-65
2023/04/02 02:50:22;;;;;;;2.92;0.52;;;1.70;99.90;;;;;;4999650;28;20517;-65
2023/04/02 02:52:57;;;;;;;3.15;0.30;;;1.70;1.00;;;;;;4997456;28;20053;-65
2023/04/02 02:55:33;;;;;;;3.90;0.65;;;1.70;99.90;;;;;;4998623;28;20353;-65
2023/04/02 02:58:13;;;;;;;4.72;0.75;;;1.70;1.00;;;;;;5017012;28;20475;-65
2023/04/02 03:00:39;;;;;;;3.70;0.50;;;1.80;99.90;;;;;;5014060;28;20045;-64
2023/04/02 03:03:11;;;;;;;3.75;0.77;;;1.70;99.90;;;;;;4997537;28;20041;-64
2023/04/02 03:05:37;;;;;;;3.80;0.65;;;1.70;1.00;;;;;;4997623;28;20582;-64
2023/04/02 03:08:07;;;;;;;4.85;0.68;;;1.70;99.90;;;;;;4995746;28;20085;-64
2023/04/02 03:10:42;;;;;;;5.15;1.17;;;1.70;99.90;;;;;;4989442;28;20072;-65
2023/04/02 03:13:20;;;;;;;3.53;0.65;;;1.70;99.90;;;;;;4980846;28;20482;-65
2023/04/02 03:16:08;;;;;;;5.18;0.70;;;1.60;99.90;;;;;;4998709;28;20770;-64
2023/04/02 03:18:55;;;;;;;6.32;0.57;;;1.70;1.00;;;;;;4994727;28;20499;-65
2023/04/02 03:21:29;;;;;;;3.92;0.57;;;1.60;1.00;;;;;;4997993;28;20038;-65
2023/04/02 03:24:22;;;;;;;5.72;0.38;;;1.60;1.00;;;;;;4991006;28;20064;-65
2023/04/02 03:27:14;;;;;;;1.38;0.22;;;1.60;1.00;;;;;;4997272;28;20496;-64
2023/04/02 03:30:00;;;;;;;3.13;0.43;;;1.60;1.00;;;;;;4998441;28;20100;-64
2023/04/02 03:32:31;;;;;;;3.45;0.32;;;1.70;1.00;;;;;;4999422;28;20488;-64
2023/04/02 03:35:38;;;;;;;6.07;0.68;;;1.60;1.00;;;;;;4979753;28;20603;-64
2023/04/02 03:38:26;;;;;;;2.15;0.68;;;1.60;1.00;;;;;;4998486;28;20586;-64
2023/04/02 03:41:15;;;;;;;3.38;0.50;;;1.50;1.00;;;;;;4997549;28;20099;-64
2023/04/02 03:43:57;;;;;;;4.18;0.40;;;1.50;1.00;;;;;;5008587;28;20073;-64
2023/04/02 03:46:35;;;;;;;3.92;0.30;;;1.60;1.00;;;;;;4997685;28;20119;-64
2023/04/02 03:49:06;;;;;;;4.95;0.60;;;1.60;1.00;;;;;;4999341;28;20212;-65
2023/04/02 03:51:53;;;;;;;5.55;0.57;;;1.40;1.00;;;;;;4999803;28;20056;-64
2023/04/02 03:54:19;;;;;;;3.03;0.35;;;1.40;1.00;;;;;;4997723;28;20684;-65
2023/04/02 03:56:46;;;;;;;2.80;0.30;;;1.40;1.00;;;;;;4978975;28;20081;-62
2023/04/02 03:59:30;;;;;;;6.30;0.50;;;1.50;1.00;;;;;;4996799;28;20057;-64
2023/04/02 04:02:19;;;;;;;3.33;0.40;;;1.40;1.00;;;;;;4999251;28;20575;-63
2023/04/02 04:04:47;;;;;;;5.43;0.70;;;1.50;1.00;;;;;;4988425;28;20098;-63
2023/04/02 04:07:28;;;;;;;3.70;0.35;;;1.60;1.00;;;;;;5006894;28;20061;-64
2023/04/02 04:09:55;;;;;;;5.22;0.50;;;1.40;1.00;;;;;;4994173;28;20045;-63
2023/04/02 04:12:30;;;;;;;3.85;0.30;;;1.50;1.00;;;;;;4997315;28;20515;-64
2023/04/02 04:15:20;;;;;;;4.82;0.63;;;1.50;1.00;;;;;;5012630;28;20515;-64
2023/04/02 04:18:20;;;;;;;8.02;0.60;;;1.50;1.00;;;;;;4996227;28;20046;-63
2023/04/02 04:21:00;;;;;;;2.65;0.32;;;1.40;1.00;;;;;;4978569;28;20053;-63
2023/04/02 04:23:34;;;;;;;3.13;0.47;;;1.50;1.00;;;;;;5011477;28;20061;-64
2023/04/02 04:26:18;;;;;;;2.10;0.32;;;1.40;1.00;;;;;;4996978;28;20046;-64
2023/04/02 04:29:21;;;;;;;2.58;0.40;;;1.40;1.00;;;;;;4997972;28;20681;-63
2023/04/02 04:31:48;;;;;;;2.70;0.30;;;1.50;1.00;;;;;;4996764;28;20636;-63
2023/04/02 04:34:41;;;;;;;3.55;0.40;;;1.40;1.00;;;;;;4997166;28;20167;-63
2023/04/02 04:37:24;;;;;;;4.88;0.75;;;1.50;1.00;;;;;;4997804;28;20038;-63
2023/04/02 04:40:28;;;;;;;1.77;0.30;;;1.50;1.00;;;;;;4990088;28;20042;-64
2023/04/02 04:42:58;;;;;;;3.00;0.40;;;1.50;1.00;;;;;;4980926;28;20054;-64
2023/04/02 04:45:45;;;;;;;5.15;0.60;;;1.40;1.00;;;;;;4995329;28;20399;-64
2023/04/02 04:48:25;;;;;;;7.50;0.60;;;1.50;1.00;;;;;;4996792;28;20088;-64
2023/04/02 04:51:23;;;;;;;3.95;0.60;;;1.40;1.00;;;;;;4997962;28;20049;-63
2023/04/02 04:53:51;;;;;;;5.57;0.90;;;1.50;1.00;;;;;;4997663;28;20599;-65
2023/04/02 04:56:22;;;;;;;5.53;0.85;;;1.50;1.00;;;;;;4994304;28;20038;-64
2023/04/02 04:59:02;;;;;;;5.72;0.50;;;1.50;1.00;;;;;;4977701;28;20037;-65
2023/04/02 05:01:47;;;;;;;6.03;0.60;;;1.50;1.00;;;;;;4996627;28;20120;-63
2023/04/02 05:04:34;;;;;;;3.72;0.50;;;1.50;1.00;;;;;;4995103;28;20050;-64
2023/04/02 05:07:13;;;;;;;6.80;0.85;;;1.60;1.00;;;;;;4997248;28;20680;-65
2023/04/02 05:09:38;;;;;;;4.97;0.50;;;1.50;1.00;;;;;;4996153;28;20454;-65
2023/04/02 05:12:24;;;;;;;6.60;0.90;;;1.60;1.00;;;;;;4995075;28;20099;-64
2023/04/02 05:14:53;;;;;;;6.97;0.75;;;1.60;1.00;;;;;;4995731;28;20041;-65
2023/04/02 05:17:28;;;;;;;7.43;0.70;;;1.60;1.00;;;;;;4996128;28;20085;-65
2023/04/02 05:20:31;;;;;;;4.13;0.52;;;1.70;1.00;;;;;;5005149;28;20236;-64
2023/04/02 05:23:02;;;;;;;6.82;0.85;;;1.70;1.00;;;;;;4996649;28;20369;-65
2023/04/02 05:25:29;;;;;;;4.43;0.65;;;1.70;1.00;;;;;;4995601;28;21353;-65
2023/04/02 05:28:12;;;;;;;4.70;0.65;;;1.60;1.00;;;;;;4994237;28;20447;-64
2023/04/02 05:31:00;;;;;;;3.77;0.60;;;1.60;1.00;;;;;;4995790;28;20411;-66
2023/04/02 05:33:31;;;;;;;3.78;0.50;;;1.50;1.00;;;;;;5014400;28;20129;-65
2023/04/02 05:36:06;;;;;;;6.82;0.63;;;1.70;1.00;;;;;;5004825;28;20199;-65
2023/04/02 05:38:35;;;;;;;7.78;1.00;;;1.70;1.00;;;;;;4997515;28;20045;-65
2023/04/02 05:41:30;;;;;;;6.38;0.50;;;1.60;1.00;;;;;;4997468;28;20132;-65
2023/04/02 05:44:15;;;;;;;4.25;0.40;;;1.70;1.00;;;;;;4999477;28;21286;-66
2023/04/02 05:47:07;;;;;;;3.97;0.60;;;1.70;1.00;;;;;;5001020;28;20615;-65
2023/04/02 05:50:04;;;;;;;4.50;0.43;;;1.80;1.00;;;;;;5014227;28;20466;-65
2023/04/02 05:52:36;;;;;;;2.47;0.30;;;1.80;1.00;;;;;;5000740;28;20405;-64
2023/04/02 05:55:25;;;;;;;7.22;0.60;;;1.90;1.00;;;;;;4999730;28;20049;-66
2023/04/02 05:57:55;;;;;;;4.95;0.70;;;2.20;1.00;;;;;;4999722;28;20357;-64
2023/04/02 06:00:36;;;;;;;5.28;0.50;;;2.30;1.00;;;;;;5002294;28;20049;-65
2023/04/02 06:03:16;;;;;;;2.85;0.50;;;2.30;1.00;;;;;;5002192;28;20471;-65
2023/04/02 06:05:44;;;;;;;3.65;0.45;;;2.50;1.00;;;;;;4980625;28;20053;-64
2023/04/02 06:08:16;;;;;;;2.65;0.40;;;2.70;1.00;;;;;;5003442;28;20046;-64
2023/04/02 06:11:10;;;;;;;3.95;0.50;;;2.80;1.00;;;;;;5015742;28;20448;-65
2023/04/02 06:13:36;;;;;;;3.20;0.35;;;2.90;99.90;;;;;;4994276;28;20062;-65
2023/04/02 06:16:02;;;;;;;6.28;0.40;;;2.90;1.00;;;;;;5001485;28;20154;-64
2023/04/02 06:18:33;;;;;;;2.67;0.30;;;3.00;1.00;;;;;;4992775;28;20099;-65
2023/04/02 06:20:59;;;;;;;3.75;0.47;;;3.20;1.00;;;;;;4992140;28;20044;-65
2023/04/02 06:23:39;;;;;;;3.55;0.57;;;3.30;1.00;;;;;;4999355;28;20037;-65
2023/04/02 06:26:34;;;;;;;3.90;0.30;;;3.50;99.90;;;;;;4998274;28;20054;-64
2023/04/02 06:29:19;;;;;;;2.67;0.20;;;3.70;1.00;;;;;;4971616;28;20045;-64
2023/04/02 06:32:06;;;;;;;3.63;0.30;;;3.90;1.00;;;;;;4999521;28;20937;-63
2023/04/02 06:34:34;;;;;;;2.67;0.30;;;4.10;99.90;;;;;;4998259;28;20065;-64
2023/04/02 06:37:10;;;;;;;5.20;0.40;;;4.20;99.90;;;;;;5000829;28;20069;-63
2023/04/02 06:39:36;;;;;;;1.60;0.20;;;4.30;99.90;;;;;;4996792;28;20145;-64
2023/04/02 06:42:03;;;;;;;3.58;0.30;;;4.30;99.90;;;;;;5017459;28;20041;-64
2023/04/02 06:44:36;;;;;;;3.28;0.30;;;4.50;99.90;;;;;;4998666;28;20151;-64
2023/04/02 06:47:11;;;;;;;5.40;0.30;;;4.70;99.90;;;;;;5021240;28;20037;-64
2023/04/02 06:50:06;;;;;;;5.70;0.60;;;4.90;99.90;;;;;;4996849;28;20140;-63
2023/04/02 06:52:45;;;;;;;2.22;0.30;;;5.00;99.90;;;;;;4989778;28;20042;-64
2023/04/02 06:55:37;;;;;;;3.50;0.40;;;5.00;99.90;;;;;;4999032;28;20420;-64
2023/04/02 06:58:02;;;;;;;2.95;0.40;;;5.20;99.90;;;;;;5018593;28;20045;-63
2023/04/02 07:00:43;;;;;;;3.95;0.30;;;5.50;99.90;;;;;;4999029;28;20054;-63
2023/04/02 07:03:31;;;;;;;2.72;0.40;;;5.50;99.90;;;;;;4998099;28;20041;-63
2023/04/02 07:05:59;;;;;;;3.72;0.40;;;5.40;99.90;;;;;;5024982;28;20042;-63
2023/04/02 07:08:25;;;;;;;4.13;0.30;;;5.20;99.90;;;;;;4991692;28;20216;-64
2023/04/02 07:10:51;;;;;;;2.10;0.30;;;5.00;99.90;;;;;;4997090;28;20516;-63
2023/04/02 07:13:22;;;;;;;4.05;0.30;;;4.90;99.90;;;;;;5015174;28;20060;-64
2023/04/02 07:15:50;;;;;;;2.83;0.30;;;4.70;99.90;;;;;;4999114;28;20180;-64
2023/04/02 07:18:26;;;;;;;4.07;0.30;;;4.40;99.90;;;;;;4999859;28;20080;-63
2023/04/02 07:20:52;;;;;;;2.50;0.50;;;4.50;99.90;;;;;;5015213;28;20076;-63
2023/04/02 07:23:19;;;;;;;2.25;0.30;;;4.60;99.90;;;;;;4996747;28;20128;-64
2023/04/02 07:25:47;;;;;;;5.20;0.30;;;4.70;99.90;;;;;;5008206;28;20451;-64
2023/04/02 07:28:13;;;;;;;2.15;0.32;;;5.10;99.90;;;;;;4995988;28;20060;-63
2023/04/02 07:30:40;;;;;;;2.28;0.40;;;5.60;99.90;;;;;;5006313;28;20038;-64
2023/04/02 07:33:06;;;;;;;3.13;0.63;;;5.80;99.90;;;;;;4996386;28;20041;-64
2023/04/02 07:35:32;;;;;;;1.40;0.13;;;6.00;99.90;;;;;;4991888;28;20049;-63
2023/04/02 07:37:58;;;;;;;2.65;0.38;;;6.10;99.90;;;;;;4995925;28;20107;-65
2023/04/02 07:40:23;;;;;;;3.72;0.45;;;6.10;99.90;;;;;;4999218;28;20991;-63
2023/04/02 07:42:49;;;;;;;3.10;0.30;;;6.10;99.90;;;;;;4994011;28;20655;-64
2023/04/02 07:45:15;;;;;;;3.35;0.30;;;6.00;99.90;;;;;;5014190;28;20635;-64
2023/04/02 07:47:41;;;;;;;3.75;0.73;;;5.90;99.90;;;;;;4996298;28;20049;-64
2023/04/02 07:50:08;;;;;;;4.43;0.50;;;5.70;99.90;;;;;;4998782;28;20041;-64
2023/04/02 07:52:39;;;;;;;5.53;0.50;;;5.90;99.90;;;;;;4995044;28;20125;-63
2023/04/02 07:55:05;;;;;;;1.52;0.30;;;6.10;99.90;;;;;;5013340;28;20487;-64
2023/04/02 07:57:30;;;;;;;5.13;0.32;;;6.20;99.90;;;;;;5000547;28;20046;-62
2023/04/02 07:59:56;;;;;;;3.15;0.30;;;6.60;99.90;;;;;;5003361;28;20695;-63
2023/04/02 08:02:22;;;;;;;4.57;0.47;;;6.80;99.90;;;;;;5000702;28;20052;-64
2023/04/02 08:04:50;;;;;;;5.38;0.40;;;7.00;99.90;;;;;;4993734;28;20044;-64
2023/04/02 08:07:16;;;;;;;3.13;0.22;;;7.30;99.90;;;;;;4996034;28;20065;-65
2023/04/02 08:09:43;;;;;;;1.77;0.30;;;7.50;99.90;;;;;;4993765;28;20217;-63
2023/04/02 08:12:12;;;;;;;3.75;0.30;;;7.70;99.90;;;;;;4996009;28;20098;-64
2023/04/02 08:14:38;;;;;;;3.90;0.30;;;8.00;99.90;;;;;;4995102;28;20042;-65
2023/04/02 08:17:03;;;;;;;2.13;0.43;;;8.10;88.20;;;;;;4995480;28;20459;-63
2023/04/02 08:19:29;;;;;;;3.85;0.30;;;8.10;71.30;;;;;;4995551;28;20046;-65
2023/04/02 08:21:55;;;;;;;2.75;0.30;;;8.00;42.80;;;;;;5025080;28;20045;-64
2023/04/02 08:24:21;;;;;;;4.22;0.50;;;7.60;1.00;;;;;;4986236;28;20051;-64
2023/04/02 08:26:48;;;;;;;1.92;0.25;;;7.30;1.00;;;;;;5020474;28;20033;-63
2023/04/02 08:29:14;;;;;;;3.80;0.40;;;7.40;41.90;;;;;;4998587;28;20336;-64
2023/04/02 08:31:40;;;;;;;2.63;0.30;;;7.70;58.30;;;;;;4997170;28;20049;-64
2023/04/02 08:34:06;;;;;;;3.15;0.45;;;7.80;62.90;;;;;;4981871;28;20264;-63
2023/04/02 08:36:36;;;;;;;2.70;0.65;;;8.00;1.00;;;;;;4997302;28;20042;-64
2023/04/02 08:39:03;;;;;;;2.70;0.73;;;8.00;1.00;;;;;;5012555;28;20044;-64
2023/04/02 08:41:37;;;;;;;3.25;0.20;;;8.10;1.00;;;;;;4995254;28;20374;-64
2023/04/02 08:44:25;;;;;;;2.78;0.30;;;8.50;1.00;;;;;;5013357;28;20046;-64
2023/04/02 08:46:55;;;;;;;3.47;0.30;;;8.80;1.00;;;;;;4995926;28;20041;-64
2023/04/02 08:49:49;;;;;;;1.80;0.28;;;8.90;1.00;;;;;;4997224;28;20717;-64
2023/04/02 08:52:27;;;;;;;2.03;0.20;;;9.10;1.00;;;;;;4989817;28;20861;-65
2023/04/02 08:54:55;;;;;;;2.70;0.30;;;9.20;1.00;;;;;;4998020;28;20228;-63
2023/04/02 08:57:30;;;;;;;2.88;0.30;;;9.20;1.00;;;;;;5012116;28;20829;-64
2023/04/02 09:00:09;;;;;;;1.35;0.20;;;9.30;1.00;;;;;;4994520;28;20053;-64
2023/04/02 09:02:46;;;;;;;2.50;0.20;;;9.30;99.90;;;;;;4993159;28;20285;-64
2023/04/02 09:05:26;;;;;;;2.55;0.30;;;9.00;99.90;;;;;;4989540;28;20627;-64
2023/04/02 09:07:53;;;;;;;2.55;0.22;;;9.00;99.90;;;;;;4995750;28;20054;-65
2023/04/02 09:10:24;;;;;;;2.22;0.30;;;8.90;99.90;;;;;;4993557;28;20431;-65
2023/04/02 09:12:51;;;;;;;2.22;0.30;;;9.00;99.90;;;;;;4993165;28;20397;-63
2023/04/02 09:15:35;;;;;;;2.55;0.30;;;8.90;99.90;;;;;;5000906;28;20042;-65
2023/04/02 09:18:18;;;;;;;1.40;0.28;;;8.90;99.90;;;;;;5015154;28;20275;-64
2023/04/02 09:20:44;;;;;;;2.55;0.20;;;9.20;99.90;;;;;;5017700;28;20235;-65
2023/04/02 09:23:22;;;;;;;2.42;0.20;;;9.20;99.90;;;;;;5007821;28;20720;-63
2023/04/02 09:25:51;;;;;;;2.03;0.30;;;9.00;99.90;;;;;;5005160;28;20114;-64
2023/04/02 09:28:19;;;;;;;3.08;0.20;;;9.00;99.90;;;;;;5001124;28;20048;-65
2023/04/02 09:31:20;;;;;;;1.85;0.30;;;9.30;99.90;;;;;;5008191;28;20667;-64
2023/04/02 09:33:48;;;;;;;2.45;0.20;;;9.40;99.90;;;;;;5004769;28;20167;-63
2023/04/02 09:36:31;;;;;;;2.10;0.20;;;9.30;99.90;;;;;;5004080;28;20053;-63
2023/04/02 09:39:05;;;;;;;2.60;0.30;;;9.30;99.90;;;;;;4997332;28;20124;-64
2023/04/02 09:41:31;;;;;;;;;;;9.40;99.90;;;;;;5019309;28;20042;-63
2023/04/02 09:44:20;;;;;;;2.08;0.20;;;9.50;99.90;;;;;;5010080;28;19939;-63
2023/04/02 09:46:58;;;;;;;1.48;0.20;;;9.50;99.90;;;;;;5004689;28;20447;-65
2023/04/02 09:49:28;;;;;;;1.60;0.25;;;9.60;99.90;;;;;;5003665;28;20198;-63
2023/04/02 09:52:19;;;;;;;2.35;0.20;;;9.60;99.90;;;;;;5018865;28;20037;-65
2023/04/02 09:54:46;;;;;;;1.55;0.32;;;9.60;99.90;;;;;;4998024;28;20153;-64
2023/04/02 09:57:26;;;;;;;1.40;0.30;;;9.50;99.90;;;;;;5014890;28;20045;-63
2023/04/02 10:00:16;;;;;;;0.95;0.13;;;9.50;99.90;;;;;;5004061;28;20606;-64
2023/04/02 10:02:42;;;;;;;1.95;0.10;;;9.50;99.90;;;;;;5004035;28;20565;-64
2023/04/02 10:05:21;;;;;;;2.58;0.10;;;9.50;99.90;;;;;;5001058;28;21345;-63
2023/04/02 10:07:50;;;;;;;1.88;0.10;;;9.60;99.90;;;;;;4999534;28;20054;-64
2023/04/02 10:10:21;;;;;;;2.25;0.35;;;10.10;99.90;;;;;;5001237;28;20046;-63
2023/04/02 10:12:58;;;;;;;2.17;0.10;;;10.10;99.90;;;;;;5015618;28;20070;-63
2023/04/02 10:15:43;;;;;;;1.88;0.17;;;10.00;99.90;;;;;;4980884;28;20105;-65
2023/04/02 10:18:42;;;;;;;1.38;0.10;;;10.00;99.90;;;;;;5000879;28;20034;-65
2023/04/02 10:21:14;;;;;;;1.30;0.10;;;10.20;99.90;;;;;;4997727;28;20034;-66
2023/04/02 10:23:40;;;;;;;3.17;0.20;;;10.40;99.90;;;;;;5015263;28;20037;-65
2023/04/02 10:26:30;;;;;;;1.75;0.20;;;10.60;99.90;;;;;;4998391;28;20068;-65
2023/04/02 10:29:21;;;;;;;1.30;0.10;;;10.70;99.90;;;;;;5000060;28;20033;-63
2023/04/02 10:32:20;;;;;;;1.10;0.15;;;10.70;99.90;;;;;;5001388;28;20425;-62
2023/04/02 10:35:02;;;;;;;3.03;0.20;;;10.70;99.90;;;;;;5006409;28;20042;-63
2023/04/02 10:37:56;;;;;;;1.58;0.10;;;10.90;99.90;;;;;;5003459;28;20379;-64
2023/04/02 10:40:35;;;;;;;2.13;0.20;;;10.60;99.90;;;;;;4998877;28;20034;-66
2023/04/02 10:43:19;;;;;;;0.88;0.10;;;10.70;99.90;;;;;;4998978;28;20121;-62
2023/04/02 10:45:50;;;;;;;2.08;0.10;;;10.50;99.90;;;;;;5022240;28;20077;-64
2023/04/02 10:48:27;;;;;;;1.83;0.20;;;10.70;99.90;;;;;;5000793;28;20052;-62
2023/04/02 10:51:13;;;;;;;1.40;0.20;;;10.60;99.90;;;;;;4999327;28;20470;-64
2023/04/02 10:53:48;;;;;;;1.20;0.10;;;10.60;99.90;;;;;;5003229;28;20057;-64
2023/04/02 10:56:14;;;;;;;1.08;0.17;;;10.60;99.90;;;;;;4997754;28;20104;-64
2023/04/02 10:59:01;;;;;;;1.75;0.30;;;10.80;99.90;;;;;;5009402;28;20045;-64
2023/04/02 11:01:29;;;;;;;1.65;0.28;;;11.10;99.90;;;;;;5002764;28;20038;-64
2023/04/02 11:04:01;;;;;;;0.90;0.10;;;10.90;99.90;;;;;;5019316;28;20072;-64
2023/04/02 11:06:47;;;;;;;0.93;0.17;;;10.90;99.90;;;;;;5000536;28;20346;-63
2023/04/02 11:09:20;;;;;;;0.60;0.10;;;11.00;99.90;;;;;;5003761;28;20050;-64
2023/04/02 11:11:50;;;;;;;2.42;0.20;;;11.10;99.90;;;;;;5001829;28;20053;-65
2023/04/02 11:14:22;;;;;;;1.38;0.10;;;10.70;99.90;;;;;;5003755;28;20128;-65
2023/04/02 11:16:48;;;;;;;1.10;0.20;;;10.60;99.90;;;;;;5003827;28;20041;-64
2023/04/02 11:19:14;;;;;;;1.52;0.17;;;10.50;99.90;;;;;;5005060;28;20144;-64
2023/04/02 11:21:58;;;;;;;1.27;0.10;;;10.50;99.90;;;;;;5003067;28;20154;-63
2023/04/02 11:24:35;;;;;;;;;;;10.70;99.90;;;;;;5004227;28;20046;-66
2023/04/02 11:27:10;;;;;;;1.20;0.10;;;10.40;99.90;;;;;;5001887;28;19933;-65
2023/04/02 11:29:40;;;;;;;1.98;0.10;;;10.30;99.90;;;;;;5023003;28;20068;-63
2023/04/02 11:32:21;;;;;;;1.45;0.20;;;10.40;99.90;;;;;;5005968;28;20049;-63
2023/04/02 11:34:50;;;;;;;2.28;0.25;;;10.50;99.90;;;;;;4984650;28;20133;-64
2023/04/02 11:37:37;;;;;;;2.15;0.20;;;10.90;99.90;;;;;;5001162;28;20115;-64
2023/04/02 11:40:14;;;;;;;2.70;0.20;;;11.20;99.90;;;;;;5002435;28;20121;-64
2023/04/02 11:42:44;;;;;;;1.88;0.20;;;11.30;99.90;;;;;;5000773;28;20871;-65
2023/04/02 11:45:22;;;;;;;2.78;0.25;;;11.20;99.90;;;;;;5019406;28;20080;-63
2023/04/02 11:48:00;;;;;;;1.98;0.20;;;11.20;99.90;;;;;;4984102;28;20523;-64
2023/04/02 11:50:40;;;;;;;1.63;0.10;;;11.60;99.90;;;;;;5000973;28;20115;-63
2023/04/02 11:53:09;;;;;;;0.90;0.10;;;11.40;99.90;;;;;;5003565;28;20280;-65
2023/04/02 11:55:36;;;;;;;3.67;0.38;;;11.40;99.90;;;;;;4973044;28;20293;-64
2023/04/02 11:58:21;;;;;;;1.10;0.10;;;11.30;99.90;;;;;;4990839;28;20043;-63
2023/04/02 12:00:53;;;;;;;1.40;0.17;;;11.40;99.90;;;;;;4983983;28;20054;-64
2023/04/02 12:03:40;;;;;;;3.28;0.20;;;11.80;99.90;;;;;;4983276;28;20080;-64
2023/04/02 12:06:33;;;;;;;1.35;0.10;;;11.80;99.90;;;;;;4983625;28;20069;-63
2023/04/02 12:09:11;;;;;;;0.73;0.10;;;11.80;99.90;;;;;;4981390;28;20540;-65
2023/04/02 12:11:38;;;;;;;1.98;0.10;;;11.60;99.90;;;;;;4980600;28;20504;-64
2023/04/02 12:14:33;;;;;;;1.15;0.20;;;11.60;99.90;;;;;;4985566;28;20740;-63
2023/04/02 12:16:59;;;;;;;1.13;0.20;;;11.80;99.90;;;;;;4984758;28;20852;-64
2023/04/02 12:19:26;;;;;;;0.55;0.10;;;12.30;99.90;;;;;;4975924;28;20137;-64
2023/04/02 12:21:52;;;;;;;0.70;0.10;;;12.60;99.90;;;;;;4979881;28;20512;-63
2023/04/02 12:24:23;;;;;;;2.60;0.10;;;12.10;99.90;;;;;;4982535;28;20518;-65
2023/04/02 12:27:07;;;;;;;1.67;0.20;;;12.00;99.90;;;;;;4992112;28;20104;-63
2023/04/02 12:29:34;;;;;;;2.00;0.20;;;11.50;99.90;;;;;;4985717;28;20046;-64
2023/04/02 12:32:02;;;;;;;1.65;0.10;;;10.80;99.90;;;;;;5000642;28;20046;-65
2023/04/02 12:34:29;;;;;;;0.95;0.10;;;10.90;99.90;;;;;;4983386;28;20125;-63
2023/04/02 12:37:03;;;;;;;2.97;0.10;;;11.20;99.90;;;;;;4993225;28;20065;-64
2023/04/02 12:39:33;;;;;;;2.22;0.20;;;11.60;99.90;;;;;;4972643;28;20512;-64
2023/04/02 12:42:00;;;;;;;1.00;0.10;;;11.60;99.90;;;;;;4977195;28;20054;-64
2023/04/02 12:44:28;;;;;;;1.10;0.20;;;11.40;99.90;;;;;;4978535;28;20439;-65
2023/04/02 12:46:55;;;;;;;0.40;0.10;;;11.80;99.90;;;;;;4978275;28;20560;-65
2023/04/02 12:49:32;;;;;;;1.58;0.20;;;11.70;99.90;;;;;;4992817;28;20038;-65
2023/04/02 12:52:00;;;;;;;1.67;0.20;;;11.90;99.90;;;;;;4997619;28;20474;-65
2023/04/02 12:54:27;;;;;;;1.42;0.10;;;12.00;99.90;;;;;;4997755;28;20152;-63
2023/04/02 12:56:53;;;;;;;0.60;0.10;;;11.90;99.90;;;;;;4995150;28;20700;-64
2023/04/02 12:59:27;;;;;;;1.60;0.25;;;12.10;99.90;;;;;;4994843;28;20057;-64
2023/04/02 13:01:59;;;;;;;1.80;0.10;;;12.00;99.90;;;;;;5012609;28;20078;-64
2023/04/02 13:04:25;;;;;;;1.00;0.10;;;11.50;99.90;;;;;;5011401;28;20046;-63
2023/04/02 13:06:54;;;;;;;2.05;0.10;;;11.30;99.90;;;;;;5014128;28;20387;-63
2023/04/02 13:09:52;;;;;;;0.65;0.10;;;11.80;99.90;;;;;;5015120;28;20132;-65
2023/04/02 13:12:39;;;;;;;3.45;0.30;;;11.40;99.90;;;;;;5015993;28;20503;-63
2023/04/02 13:15:08;;;;;;;1.13;0.20;;;11.30;99.90;;;;;;5015871;28;20045;-64
2023/04/02 13:17:46;;;;;;;0.40;0.10;;;11.80;99.90;;;;;;5014906;28;20088;-64
2023/04/02 13:20:38;;;;;;;0.80;0.10;;;11.80;99.90;;;;;;4998967;28;20099;-64
2023/04/02 13:23:30;;;;;;;1.10;0.10;;;12.10;99.90;;;;;;4998558;28;20060;-64
2023/04/02 13:25:57;;;;;;;1.40;0.20;;;12.20;99.90;;;;;;5016192;28;20627;-63
2023/04/02 13:28:23;;;;;;;0.77;0.10;;;12.10;99.90;;;;;;4998362;28;20490;-64
2023/04/02 13:30:48;;;;;;;0.60;0.10;;;12.30;99.90;;;;;;4981166;28;20038;-64
2023/04/02 13:33:16;;;;;;;0.88;0.10;;;12.30;99.90;;;;;;4998326;28;20158;-63
2023/04/02 13:35:42;;;;;;;2.05;0.20;;;11.80;99.90;;;;;;4998283;28;20049;-63
2023/04/02 13:38:08;;;;;;;1.10;0.10;;;11.80;99.90;;;;;;5015778;28;20056;-63
2023/04/02 13:40:35;;;;;;;0.75;0.10;;;12.10;99.90;;;;;;5015161;28;20041;-64
2023/04/02 13:43:02;;;;;;;1.67;0.10;;;12.20;99.90;;;;;;5016132;28;20053;-64